Aeroporto :
LOGIN :

Iscrizione | Disclaimer

   EN    FR    IT 

 










Sommario :    VFR   VFR Marginale   IFR   IFR Intensivo   IFR Molto Intensivo
Visibilità : 
Base nubi : 
>= 8 km
>= 3000ft
5 / 8 km
1000 / 3000 ft
1500m / 5 km
500 / 1000 ft
800 / 1500m
200 / 500 ft
< 800m
< 200 ft
Simboli :   Temporali  Nebbia  Neve Forte  Precipitazioni Forti  Vento > 20 kt
SIGMETs :   Varie  Temporali  Ghiacco  Turbolenza  Onda orograficha  Ceneri Vulcaniche






- Altitudine del aeroporto : 425 ft
- Codice IATA : DTM


EDLW - Dortmund

ULTIMO METAR :
  • 200620Z 12006KT 0550 R24/0650D FZFG BKN001 M00/M01 Q1018

METARs OBSOLETI :
  • 200550Z 15004KT 2000 BR BKN002 M00/M01 Q1018
  • 200520Z 16006KT 1100 R24/1100N BR FEW001 00/00 Q1018
  • 200450Z VRB02KT 6000 SCT034 01/00 Q1018
  • 200420Z 17006KT 6000 OVC032 02/02 Q1019
  • 200350Z AUTO 15006KT 6000 // BKN028/// OVC032/// 02/02 Q1019

TAF COR TAF EDLW
Valido dal 20 a 06 ore il 21 a 06 ore UTC


200545Z 2006/2106 VRB03KT 3000 BR BKN005
TEMPO 2006/2009 0800 FG OVC001
PROB30
TEMPO 2006/2009 0200 FZFG
BECMG 2009/2012 09005KT 9999 SCT015
BECMG 2022/2101 3000 BR



MetMap, La meteo Aeronautica in un colpo d'occhio ! - Copyright ORBIFLY Dicembre 2007 - Disclaimer

ORBIFLY MET'MAP TEAM :

Programmazione e sviluppo : Alexandra Zaïnal
Concezione e sviluppo : Baudouin d'Aumeries
Co-Programmazione e sviluppo : Marc-Olivier Méhu
Supporto tecnico e logistico : Manuel Goepfert
Aiuto per la traduzione : Arnaldo La Scala

Contatto : metmap@orbifly.com




FONTI E CREDITI :

   NOAA